Time;durP1;ratioP1;P1;durP2;ratioP2;P2;SDS_P1;SDS_P2;PMS_P1;PMS_P2;Temp;Humidity;BMP_temperature;BMP_pressure;BME280_temperature;BME280_humidity;BME280_pressure;Samples;Min_cycle;Max_cycle;Signal;HPM_P1;HPM_P2
2024/03/16 00:02:04;;;;;;;;;;;;;;;;;;5055552;28;19916;-73
2024/03/16 00:04:29;;;;;;;;;;;;;;;;;;5057204;28;19909;-72
2024/03/16 00:06:57;;;;;;;;;;;;;;;;;;5056344;28;20368;-72
2024/03/16 00:09:24;;;;;;;;;;;;;;;;;;5056998;28;19955;-72
2024/03/16 00:11:50;;;;;;;;;;;;;;;;;;5055400;28;19909;-72
2024/03/16 00:14:16;;;;;;;;;;;;;;;;;;5054918;28;19909;-72
2024/03/16 00:16:42;;;;;;;;;;;;;;;;;;5055313;28;20250;-72
2024/03/16 00:19:08;;;;;;;;;;;;;;;;;;5056481;28;20019;-72
2024/03/16 00:21:34;;;;;;;;;;;;;;;;;;5056089;28;19909;-72
2024/03/16 00:24:00;;;;;;;;;;;;;;;;;;5055225;28;19909;-72
2024/03/16 00:26:26;;;;;;;;;;;;;;;;;;5056412;28;20007;-72
2024/03/16 00:28:52;;;;;;;;;;;;;;;;;;5055963;28;19916;-72
2024/03/16 00:31:18;;;;;;;;;;;;;;;;;;5055789;28;19913;-72
2024/03/16 00:33:44;;;;;;;;;;;;;;;;;;5055869;28;19915;-72
2024/03/16 00:36:10;;;;;;;;;;;;;;;;;;5056202;28;19952;-72
2024/03/16 00:38:36;;;;;;;;;;;;;;;;;;5056457;28;19919;-72
2024/03/16 00:41:05;;;;;;;;;;;;;;;;;;5055682;28;20674;-72
2024/03/16 00:43:31;;;;;;;;;;;;;;;;;;5056239;28;20368;-72
2024/03/16 00:45:56;;;;;;;;;;;;;;;;;;5056424;28;19916;-72
2024/03/16 00:48:22;;;;;;;;;;;;;;;;;;5055896;28;19909;-72
2024/03/16 00:50:48;;;;;;;;;;;;;;;;;;5056298;28;19974;-72
2024/03/16 00:53:15;;;;;;;;;;;;;;;;;;5056436;28;20356;-72
2024/03/16 00:55:41;;;;;;;;;;;;;;;;;;5055915;28;19916;-72
2024/03/16 00:58:07;;;;;;;;;;;;;;;;;;5055584;28;19913;-71
2024/03/16 01:00:33;;;;;;;;;;;;;;;;;;5055736;28;19966;-72
2024/03/16 01:02:59;;;;;;;;;;;;;;;;;;5055391;28;19977;-72
2024/03/16 01:05:27;;;;;;;;;;;;;;;;;;5055734;28;19916;-71
2024/03/16 01:07:53;;;;;;;;;;;;;;;;;;5055674;28;19916;-72
2024/03/16 01:10:19;;;;;;;;;;;;;;;;;;5053822;28;19964;-71
2024/03/16 01:12:45;;;;;;;;;;;;;;;;;;5055569;28;19940;-72
2024/03/16 01:15:11;;;;;;;;;;;;;;;;;;5055420;28;19909;-72
2024/03/16 01:17:37;;;;;;;;;;;;;;;;;;5054966;28;19993;-71
2024/03/16 01:20:05;;;;;;;;;;;;;;;;;;5054070;28;20332;-73
2024/03/16 01:22:31;;;;;;;;;;;;;;;;;;5055317;28;19913;-72
2024/03/16 01:24:57;;;;;;;;;;;;;;;;;;5053631;28;20277;-73
2024/03/16 01:27:23;;;;;;;;;;;;;;;;;;5055263;28;19909;-72
2024/03/16 01:29:49;;;;;;;;;;;;;;;;;;5055378;28;19962;-72
2024/03/16 01:32:15;;;;;;;;;;;;;;;;;;5053489;28;19915;-72
2024/03/16 01:34:41;;;;;;;;;;;;;;;;;;5055677;28;19909;-72
2024/03/16 01:37:07;;;;;;;;;;;;;;;;;;5054678;28;19909;-72
2024/03/16 01:39:33;;;;;;;;;;;;;;;;;;5054932;28;19917;-72
2024/03/16 01:41:59;;;;;;;;;;;;;;;;;;5054746;28;19909;-72
2024/03/16 01:44:25;;;;;;;;;;;;;;;;;;5052607;28;19908;-72
2024/03/16 01:46:51;;;;;;;;;;;;;;;;;;5054925;28;20448;-72
2024/03/16 01:49:17;;;;;;;;;;;;;;;;;;5054805;28;19909;-72
2024/03/16 01:51:43;;;;;;;;;;;;;;;;;;5053236;28;19915;-72
2024/03/16 01:54:10;;;;;;;;;;;;;;;;;;5053504;28;20360;-72
2024/03/16 01:56:36;;;;;;;;;;;;;;;;;;5054770;28;19962;-72
2024/03/16 01:59:02;;;;;;;;;;;;;;;;;;5054260;28;19920;-73
2024/03/16 02:01:28;;;;;;;;;;;;;;;;;;5054956;28;19917;-72
2024/03/16 02:03:57;;;;;;;;;;;;;;;;;;5054724;28;20434;-73
2024/03/16 02:06:23;;;;;;;;;;;;;;;;;;5052857;28;20348;-72
2024/03/16 02:08:49;;;;;;;;;;;;;;;;;;5053328;28;19912;-72
2024/03/16 02:11:14;;;;;;;;;;;;;;;;;;5054376;28;19963;-72
2024/03/16 02:13:40;;;;;;;;;;;;;;;;;;5054055;28;19909;-73
2024/03/16 02:16:06;;;;;;;;;;;;;;;;;;5054365;28;19909;-73
2024/03/16 02:18:32;;;;;;;;;;;;;;;;;;5054189;28;19913;-73
2024/03/16 02:20:58;;;;;;;;;;;;;;;;;;5053890;28;19973;-73
2024/03/16 02:23:24;;;;;;;;;;;;;;;;;;5054831;28;20272;-73
2024/03/16 02:25:50;;;;;;;;;;;;;;;;;;5052868;28;19913;-73
2024/03/16 02:28:16;;;;;;;;;;;;;;;;;;5053763;28;19909;-73
2024/03/16 02:30:43;;;;;;;;;;;;;;;;;;5054108;28;19997;-73
2024/03/16 02:33:10;;;;;;;;;;;;;;;;;;5054215;28;19909;-72
2024/03/16 02:35:36;;;;;;;;;;;;;;;;;;5053613;28;19909;-73
2024/03/16 02:38:03;;;;;;;;;;;;;;;;;;5053986;28;19909;-72
2024/03/16 02:40:29;;;;;;;;;;;;;;;;;;5053586;28;19928;-72
2024/03/16 02:42:55;;;;;;;;;;;;;;;;;;5053932;28;19912;-72
2024/03/16 02:45:21;;;;;;;;;;;;;;;;;;5053885;28;19909;-72
2024/03/16 02:47:46;;;;;;;;;;;;;;;;;;5052258;28;19916;-72
2024/03/16 02:50:13;;;;;;;;;;;;;;;;;;5052661;28;19909;-73
2024/03/16 02:52:38;;;;;;;;;;;;;;;;;;5053882;28;20269;-72
2024/03/16 02:55:05;;;;;;;;;;;;;;;;;;5053307;28;20114;-72
2024/03/16 02:57:31;;;;;;;;;;;;;;;;;;5054351;28;19942;-72
2024/03/16 02:59:57;;;;;;;;;;;;;;;;;;5053487;28;19932;-72
2024/03/16 03:02:23;;;;;;;;;;;;;;;;;;5052168;28;20003;-72
2024/03/16 03:04:49;;;;;;;;;;;;;;;;;;5053699;28;19956;-73
2024/03/16 03:07:15;;;;;;;;;;;;;;;;;;5053679;28;19909;-72
2024/03/16 03:09:41;;;;;;;;;;;;;;;;;;5053400;28;20007;-73
2024/03/16 03:12:07;;;;;;;;;;;;;;;;;;5052356;28;19913;-73
2024/03/16 03:14:33;;;;;;;;;;;;;;;;;;5053667;28;19909;-73
2024/03/16 03:16:59;;;;;;;;;;;;;;;;;;5053411;28;20003;-73
2024/03/16 03:19:25;;;;;;;;;;;;;;;;;;5053510;28;19916;-72
2024/03/16 03:21:51;;;;;;;;;;;;;;;;;;5052201;28;20441;-72
2024/03/16 03:24:17;;;;;;;;;;;;;;;;;;5051846;28;19913;-72
2024/03/16 03:26:43;;;;;;;;;;;;;;;;;;5053515;28;19915;-72
2024/03/16 03:29:09;;;;;;;;;;;;;;;;;;5053530;28;19912;-73
2024/03/16 03:31:35;;;;;;;;;;;;;;;;;;5053054;28;19931;-72
2024/03/16 03:34:01;;;;;;;;;;;;;;;;;;5052134;28;19916;-72
2024/03/16 03:36:27;;;;;;;;;;;;;;;;;;5053549;28;19947;-72
2024/03/16 03:38:53;;;;;;;;;;;;;;;;;;5052931;28;20380;-72
2024/03/16 03:41:18;;;;;;;;;;;;;;;;;;5052068;28;19917;-73
2024/03/16 03:43:47;;;;;;;;;;;;;;;;;;5053016;28;19909;-73
2024/03/16 03:46:28;;;;;;;;;;;;;;;;;;5053298;28;19908;-72
2024/03/16 03:49:10;;;;;;;;;;;;;;;;;;5052052;28;19909;-73
2024/03/16 03:51:36;;;;;;;;;;;;;;;;;;5053029;28;19915;-73
2024/03/16 03:54:04;;;;;;;;;;;;;;;;;;5053247;28;19908;-72
2024/03/16 03:56:30;;;;;;;;;;;;;;;;;;5053431;28;19915;-73
2024/03/16 03:58:56;;;;;;;;;;;;;;;;;;5052549;28;19974;-73
2024/03/16 04:01:22;;;;;;;;;;;;;;;;;;5053174;28;19909;-72
2024/03/16 04:03:48;;;;;;;;;;;;;;;;;;5053268;28;19920;-73
2024/03/16 04:06:14;;;;;;;;;;;;;;;;;;5053778;28;19937;-73
2024/03/16 04:08:40;;;;;;;;;;;;;;;;;;5056745;28;20003;-73
2024/03/16 04:11:06;;;;;;;;;;;;;;;;;;5056691;28;19916;-73
2024/03/16 04:13:32;;;;;;;;;;;;;;;;;;5055003;28;19944;-72
2024/03/16 04:15:58;;;;;;;;;;;;;;;;;;5056703;28;19944;-73
2024/03/16 04:18:24;;;;;;;;;;;;;;;;;;5055199;28;19909;-72
2024/03/16 04:20:50;;;;;;;;;;;;;;;;;;5056109;28;19920;-72
2024/03/16 04:23:16;;;;;;;;;;;;;;;;;;5056506;28;19951;-72
2024/03/16 04:25:42;;;;;;;;;;;;;;;;;;5056477;28;19916;-72
2024/03/16 04:28:09;;;;;;;;;;;;;;;;;;5054706;28;20081;-73
2024/03/16 04:30:35;;;;;;;;;;;;;;;;;;5056414;28;19908;-73
2024/03/16 04:33:01;;;;;;;;;;;;;;;;;;5054685;28;19986;-72
2024/03/16 04:35:27;;;;;;;;;;;;;;;;;;5056291;28;19908;-72
2024/03/16 04:37:54;;;;;;;;;;;;;;;;;;5054998;28;20034;-73
2024/03/16 04:40:20;;;;;;;;;;;;;;;;;;5055719;28;20015;-72
2024/03/16 04:42:46;;;;;;;;;;;;;;;;;;5056353;28;19955;-73
2024/03/16 04:45:12;;;;;;;;;;;;;;;;;;5056139;28;19909;-73
2024/03/16 04:47:38;;;;;;;;;;;;;;;;;;5055642;28;19917;-73
2024/03/16 04:50:04;;;;;;;;;;;;;;;;;;5056315;28;19909;-73
2024/03/16 04:52:31;;;;;;;;;;;;;;;;;;5056016;28;19909;-72
2024/03/16 04:54:57;;;;;;;;;;;;;;;;;;5055478;28;19909;-73
2024/03/16 04:57:23;;;;;;;;;;;;;;;;;;5054570;28;20326;-72
2024/03/16 04:59:49;;;;;;;;;;;;;;;;;;5055593;28;19921;-72
2024/03/16 05:02:15;;;;;;;;;;;;;;;;;;5054120;28;20387;-72
2024/03/16 05:04:41;;;;;;;;;;;;;;;;;;5055700;28;19912;-73
2024/03/16 05:07:07;;;;;;;;;;;;;;;;;;5055774;28;19915;-72
2024/03/16 05:09:33;;;;;;;;;;;;;;;;;;5055278;28;20004;-72
2024/03/16 05:11:59;;;;;;;;;;;;;;;;;;5055793;28;19913;-72
2024/03/16 05:14:25;;;;;;;;;;;;;;;;;;5055535;28;19909;-72
2024/03/16 05:16:51;;;;;;;;;;;;;;;;;;5054000;28;19909;-72
2024/03/16 05:19:17;;;;;;;;;;;;;;;;;;5055480;28;19948;-74
2024/03/16 05:21:43;;;;;;;;;;;;;;;;;;5054184;28;19909;-72
2024/03/16 05:24:09;;;;;;;;;;;;;;;;;;5055039;28;19913;-72
2024/03/16 05:26:35;;;;;;;;;;;;;;;;;;5054039;28;19909;-72
2024/03/16 05:29:02;;;;;;;;;;;;;;;;;;5055271;28;20303;-72
2024/03/16 05:31:30;;;;;;;;;;;;;;;;;;5054888;28;19913;-72
2024/03/16 05:33:56;;;;;;;;;;;;;;;;;;5055166;28;19931;-72
2024/03/16 05:36:22;;;;;;;;;;;;;;;;;;5054661;28;19909;-72
2024/03/16 05:38:48;;;;;;;;;;;;;;;;;;5054981;28;19959;-72
2024/03/16 05:41:14;;;;;;;;;;;;;;;;;;5055037;28;19908;-72
2024/03/16 05:43:42;;;;;;;;;;;;;;;;;;5054557;28;19916;-72
2024/03/16 05:46:08;;;;;;;;;;;;;;;;;;5055032;28;19919;-72
2024/03/16 05:48:34;;;;;;;;;;;;;;;;;;5054724;28;20007;-72
2024/03/16 05:51:01;;;;;;;;;;;;;;;;;;5054271;28;19916;-72
2024/03/16 05:53:27;;;;;;;;;;;;;;;;;;5054703;28;19912;-73
2024/03/16 05:55:53;;;;;;;;;;;;;;;;;;5054783;28;20361;-71
2024/03/16 05:58:22;;;;;;;;;;;;;;;;;;5052751;28;19921;-72
2024/03/16 06:00:48;;;;;;;;;;;;;;;;;;5054625;28;20007;-72
2024/03/16 06:03:14;;;;;;;;;;;;;;;;;;5053355;28;19944;-72
2024/03/16 06:05:45;;;;;;;;;;;;;;;;;;5054245;28;19909;-72
2024/03/16 06:08:11;;;;;;;;;;;;;;;;;;5054494;28;19931;-72
2024/03/16 06:10:37;;;;;;;;;;;;;;;;;;5053120;28;19909;-72
2024/03/16 06:13:04;;;;;;;;;;;;;;;;;;5054194;28;19916;-72
2024/03/16 06:15:30;;;;;;;;;;;;;;;;;;5053065;28;19955;-72
2024/03/16 06:17:56;;;;;;;;;;;;;;;;;;5054419;28;19944;-72
2024/03/16 06:20:22;;;;;;;;;;;;;;;;;;5053858;28;20006;-72
2024/03/16 06:22:48;;;;;;;;;;;;;;;;;;5054239;28;19909;-72
2024/03/16 06:25:14;;;;;;;;;;;;;;;;;;5054206;28;19909;-71
2024/03/16 06:27:43;;;;;;;;;;;;;;;;;;5053774;28;20020;-71
2024/03/16 06:30:09;;;;;;;;;;;;;;;;;;5053770;28;20271;-73
2024/03/16 06:32:38;;;;;;;;;;;;;;;;;;5053799;28;20367;-73
2024/03/16 06:35:04;;;;;;;;;;;;;;;;;;5054088;28;19915;-73
2024/03/16 06:37:30;;;;;;;;;;;;;;;;;;5054009;28;19995;-73
2024/03/16 06:39:56;;;;;;;;;;;;;;;;;;5053529;28;19939;-72
2024/03/16 06:42:23;;;;;;;;;;;;;;;;;;5054098;28;19913;-73
2024/03/16 06:44:49;;;;;;;;;;;;;;;;;;5053938;28;19913;-73
2024/03/16 06:47:15;;;;;;;;;;;;;;;;;;5053461;28;20440;-73
2024/03/16 06:49:41;;;;;;;;;;;;;;;;;;5053980;28;20269;-72
2024/03/16 06:52:07;;;;;;;;;;;;;;;;;;5053756;28;20280;-72
2024/03/16 06:54:33;;;;;;;;;;;;;;;;;;5053412;28;19910;-72
2024/03/16 06:56:59;;;;;;;;;;;;;;;;;;5053724;28;19916;-72
2024/03/16 06:59:25;;;;;;;;;;;;;;;;;;5053522;28;20357;-72
2024/03/16 07:01:51;;;;;;;;;;;;;;;;;;5053258;28;19917;-73
2024/03/16 07:04:17;;;;;;;;;;;;;;;;;;5053739;28;20387;-72
2024/03/16 07:06:43;;;;;;;;;;;;;;;;;;5053669;28;19916;-73
2024/03/16 07:09:11;;;;;;;;;;;;;;;;;;5052018;28;19956;-73
2024/03/16 07:11:37;;;;;;;;;;;;;;;;;;5053631;28;19916;-72
2024/03/16 07:14:02;;;;;;;;;;;;;;;;;;5053664;28;19909;-73
2024/03/16 07:16:28;;;;;;;;;;;;;;;;;;5053153;28;20007;-73
2024/03/16 07:18:55;;;;;;;;;;;;;;;;;;5053460;28;20400;-73
2024/03/16 07:21:21;;;;;;;;;;;;;;;;;;5054046;28;19939;-72
2024/03/16 07:23:50;;;;;;;;;;;;;;;;;;5053204;28;19916;-72
2024/03/16 07:26:16;;;;;;;;;;;;;;;;;;5053356;28;19991;-73
2024/03/16 07:28:43;;;;;;;;;;;;;;;;;;5051940;28;20284;-73
2024/03/16 07:31:09;;;;;;;;;;;;;;;;;;5052148;28;20390;-73
2024/03/16 07:33:35;;;;;;;;;;;;;;;;;;5053880;28;19953;-73
2024/03/16 07:36:01;;;;;;;;;;;;;;;;;;5052993;28;19912;-74
2024/03/16 07:38:27;;;;;;;;;;;;;;;;;;5051954;28;20280;-74
2024/03/16 07:40:53;;;;;;;;;;;;;;;;;;5053856;28;19916;-72
2024/03/16 07:43:19;;;;;;;;;;;;;;;;;;5055635;28;19936;-73
2024/03/16 07:45:45;;;;;;;;;;;;;;;;;;5057227;28;19912;-73
2024/03/16 07:48:10;;;;;;;;;;;;;;;;;;5055890;28;20440;-74
2024/03/16 07:50:37;;;;;;;;;;;;;;;;;;5056732;28;20270;-73
2024/03/16 07:53:06;;;;;;;;;;;;;;;;;;5057065;28;19913;-74
2024/03/16 07:55:33;;;;;;;;;;;;;;;;;;5055742;28;19931;-72
2024/03/16 07:58:00;;;;;;;;;;;;;;;;;;5056539;28;20384;-72
2024/03/16 08:00:26;;;;;;;;;;;;;;;;;;5055614;28;20369;-72
2024/03/16 08:02:52;;;;;;;;;;;;;;;;;;5057459;28;20000;-74
2024/03/16 08:05:18;;;;;;;;;;;;;;;;;;5056418;28;20284;-74
2024/03/16 08:07:44;;;;;;;;;;;;;;;;;;5055440;28;19909;-74
2024/03/16 08:10:10;;;;;;;;;;;;;;;;;;5055485;28;19909;-74
2024/03/16 08:12:36;;;;;;;;;;;;;;;;;;5056233;28;19916;-73
2024/03/16 08:15:02;;;;;;;;;;;;;;;;;;5056631;28;19909;-73
2024/03/16 08:17:28;;;;;;;;;;;;;;;;;;5056508;28;19913;-74
2024/03/16 08:19:54;;;;;;;;;;;;;;;;;;5056040;28;19917;-73
2024/03/16 08:22:20;;;;;;;;;;;;;;;;;;5056507;28;19909;-74
2024/03/16 08:24:46;;;;;;;;;;;;;;;;;;5056476;28;19997;-74
2024/03/16 08:27:13;;;;;;;;;;;;;;;;;;5055895;28;20534;-73
2024/03/16 08:29:39;;;;;;;;;;;;;;;;;;5056301;28;19913;-74
2024/03/16 08:32:05;;;;;;;;;;;;;;;;;;5054524;28;20253;-74
2024/03/16 08:34:31;;;;;;;;;;;;;;;;;;5056220;28;19908;-74
2024/03/16 08:36:57;;;;;;;;;;;;;;;;;;5056185;28;19931;-74
2024/03/16 08:39:23;;;;;;;;;;;;;;;;;;5055702;28;20361;-73
2024/03/16 08:42:48;;;;;;;;;;;;;;;;;;5104215;27;20418;-73
2024/03/16 08:47:45;;;;;;;;;;;;;;;;;;5103297;27;19913;-74
2024/03/16 08:50:11;;;;;;;;;;;;;;;;;;5069850;28;19919;-72
2024/03/16 08:53:50;;;;;;;;;;;;;;;;;;5103797;27;19913;-74
2024/03/16 08:58:21;;;;;;;;;;;;;;;;;;5103675;27;19913;-74
2024/03/16 09:02:45;;;;;;;;;;;;;;;;;;5103893;27;19912;-73
2024/03/16 09:05:11;;;;;;;;;;;;;;;;;;5071740;28;19936;-75
2024/03/16 09:08:58;;;;;;;;;;;;;;;;;;5134209;27;20351;-74
2024/03/16 09:12:11;;;;;;;;;;;;;;;;;;5104365;27;19912;-74
2024/03/16 09:14:37;;;;;;;;;;;;;;;;;;5069450;28;20394;-73
2024/03/16 09:19:02;;;;;;;;;;;;;;;;;;5104069;27;20262;-74
2024/03/16 09:21:28;;;;;;;;;;;;;;;;;;5070842;28;19913;-73
2024/03/16 09:25:36;;;;;;;;;;;;;;;;;;5103977;27;19912;-74
2024/03/16 09:28:02;;;;;;;;;;;;;;;;;;5071299;28;19950;-75
2024/03/16 09:32:41;;;;;;;;;;;;;;;;;;5103886;27;19913;-74
2024/03/16 09:37:31;;;;;;;;;;;;;;;;;;5103573;27;19913;-72
2024/03/16 09:41:57;;;;;;;;;;;;;;;;;;5104400;27;19919;-74
2024/03/16 09:44:23;;;;;;;;;;;;;;;;;;5070923;28;19913;-74
2024/03/16 09:46:49;;;;;;;;;;;;;;;;;;5070999;28;20249;-74
2024/03/16 09:49:15;;;;;;;;;;;;;;;;;;5071073;28;19916;-75
2024/03/16 09:52:16;;;;;;;;;;;;;;;;;;5103927;27;19912;-73
2024/03/16 09:54:42;;;;;;;;;;;;;;;;;;5071442;28;19913;-73
2024/03/16 09:57:18;;;;;;;;;;;;;;;;;;5103570;27;19913;-73
2024/03/16 09:59:48;;;;;;;;;;;;;;;;;;5071130;28;19913;-73
2024/03/16 10:02:14;;;;;;;;;;;;;;;;;;5071050;28;19988;-73
2024/03/16 10:07:41;;;;;;;;;;;;;;;;;;5172869;27;19911;-74
2024/03/16 10:10:10;;;;;;;;;;;;;;;;;;5172491;27;19918;-74
2024/03/16 10:12:38;;;;;;;;;;;;;;;;;;5173332;27;19914;-74
2024/03/16 10:15:15;;;;;;;;;;;;;;;;;;5173994;27;19907;-73
2024/03/16 10:17:41;;;;;;;;;;;;;;;;;;5171926;27;19914;-74
2024/03/16 10:20:07;;;;;;;;;;;;;;;;;;5172276;27;20286;-74
2024/03/16 10:26:57;;;;;;;;;;;;;;;;;;5103851;27;19913;-75
2024/03/16 10:29:24;;;;;;;;;;;;;;;;;;5071248;28;19919;-73
2024/03/16 10:33:02;;;;;;;;;;;;;;;;;;5103398;27;19913;-74
2024/03/16 10:35:33;;;;;;;;;;;;;;;;;;5071225;28;19955;-75
2024/03/16 10:37:59;;;;;;;;;;;;;;;;;;5071025;28;19909;-75
2024/03/16 10:40:25;;;;;;;;;;;;;;;;;;5070649;28;19909;-74
2024/03/16 10:42:51;;;;;;;;;;;;;;;;;;5071226;28;19955;-75
2024/03/16 10:45:17;;;;;;;;;;;;;;;;;;5071228;28;19913;-74
2024/03/16 10:47:43;;;;;;;;;;;;;;;;;;5070529;28;19909;-73
2024/03/16 10:50:38;;;;;;;;;;;;;;;;;;5103616;27;19913;-73
2024/03/16 10:53:05;;;;;;;;;;;;;;;;;;5071066;28;19919;-73
2024/03/16 10:57:07;;;;;;;;;;;;;;;;;;5104501;27;19917;-74
2024/03/16 10:59:33;;;;;;;;;;;;;;;;;;5071042;28;20348;-73
2024/03/16 11:01:58;;;;;;;;;;;;;;;;;;5070616;28;19909;-73
2024/03/16 11:04:24;;;;;;;;;;;;;;;;;;5070996;28;19952;-73
2024/03/16 11:06:50;;;;;;;;;;;;;;;;;;5070589;28;19959;-73
2024/03/16 11:12:56;;;;;;;;;;;;;;;;;;5104226;27;19919;-75
2024/03/16 11:19:40;;;;;;;;;;;;;;;;;;5103971;27;19919;-73
2024/03/16 11:25:11;;;;;;;;;;;;;;;;;;5104472;27;19912;-73
2024/03/16 11:27:39;;;;;;;;;;;;;;;;;;5071166;28;19919;-74
2024/03/16 11:30:08;;;;;;;;;;;;;;;;;;5069390;28;19970;-73
2024/03/16 11:32:36;;;;;;;;;;;;;;;;;;5071165;28;19936;-74
2024/03/16 11:35:01;;;;;;;;;;;;;;;;;;5069302;28;19912;-73
2024/03/16 11:37:27;;;;;;;;;;;;;;;;;;5069760;28;19917;-73
2024/03/16 11:39:54;;;;;;;;;;;;;;;;;;5071053;28;19915;-73
2024/03/16 11:42:20;;;;;;;;;;;;;;;;;;5070455;28;19908;-73
2024/03/16 11:44:48;;;;;;;;;;;;;;;;;;5070775;28;20090;-73
2024/03/16 11:47:16;;;;;;;;;;;;;;;;;;5071287;28;20392;-73
2024/03/16 11:49:42;;;;;;;;;;;;;;;;;;5070516;28;19920;-73
2024/03/16 11:52:08;;;;;;;;;;;;;;;;;;5070711;28;19913;-73
2024/03/16 11:54:34;;;;;;;;;;;;;;;;;;5070572;28;19908;-73
2024/03/16 11:57:00;;;;;;;;;;;;;;;;;;5068897;28;19913;-73
2024/03/16 12:03:05;;;;;;;;;;;;;;;;;;5103072;27;20368;-74
2024/03/16 12:05:31;;;;;;;;;;;;;;;;;;5071077;28;19919;-73
2024/03/16 12:07:57;;;;;;;;;;;;;;;;;;5071118;28;20336;-73
2024/03/16 12:10:23;;;;;;;;;;;;;;;;;;5070706;28;19951;-73
2024/03/16 12:12:50;;;;;;;;;;;;;;;;;;5069704;28;19909;-73
2024/03/16 12:15:15;;;;;;;;;;;;;;;;;;5070833;28;19991;-73
2024/03/16 12:20:11;;;;;;;;;;;;;;;;;;5104100;27;19913;-73
2024/03/16 12:22:37;;;;;;;;;;;;;;;;;;5071494;28;20381;-73
2024/03/16 12:25:04;;;;;;;;;;;;;;;;;;5070811;28;19908;-73
2024/03/16 12:27:30;;;;;;;;;;;;;;;;;;5071070;28;19931;-73
2024/03/16 12:29:58;;;;;;;;;;;;;;;;;;5070976;28;20358;-73
2024/03/16 12:32:23;;;;;;;;;;;;;;;;;;5070510;28;19913;-73
2024/03/16 12:34:49;;;;;;;;;;;;;;;;;;5070904;28;19978;-73
2024/03/16 12:37:15;;;;;;;;;;;;;;;;;;5070767;28;19936;-73
2024/03/16 12:39:41;;;;;;;;;;;;;;;;;;5070223;28;19917;-73
2024/03/16 12:42:07;;;;;;;;;;;;;;;;;;5069487;28;19916;-73
2024/03/16 12:44:33;;;;;;;;;;;;;;;;;;5070597;28;19909;-74
2024/03/16 12:47:00;;;;;;;;;;;;;;;;;;5068960;28;19955;-76
2024/03/16 12:49:26;;;;;;;;;;;;;;;;;;5070668;28;20365;-73
2024/03/16 12:53:35;;;;;;;;;;;;;;;;;;5103678;27;19936;-72
2024/03/16 12:56:06;;;;;;;;;;;;;;;;;;5071139;28;20365;-73
2024/03/16 12:58:32;;;;;;;;;;;;;;;;;;5071040;28;19909;-72
2024/03/16 13:00:58;;;;;;;;;;;;;;;;;;5070850;28;20014;-73
2024/03/16 13:06:59;;;;;;;;;;;;;;;;;;5103757;27;19917;-73
2024/03/16 13:09:25;;;;;;;;;;;;;;;;;;5071163;28;19913;-73
2024/03/16 13:11:52;;;;;;;;;;;;;;;;;;5069659;28;19908;-74
2024/03/16 13:14:18;;;;;;;;;;;;;;;;;;5070664;28;19996;-74
2024/03/16 13:16:44;;;;;;;;;;;;;;;;;;5069782;28;19948;-74
2024/03/16 13:19:13;;;;;;;;;;;;;;;;;;5071440;28;20407;-75
2024/03/16 13:21:40;;;;;;;;;;;;;;;;;;5070762;28;19913;-74
2024/03/16 13:24:06;;;;;;;;;;;;;;;;;;5070823;28;19908;-74
2024/03/16 13:26:32;;;;;;;;;;;;;;;;;;5070669;28;20392;-74
2024/03/16 13:28:59;;;;;;;;;;;;;;;;;;5070397;28;19908;-74
2024/03/16 13:31:25;;;;;;;;;;;;;;;;;;5070780;28;20284;-74
2024/03/16 13:33:51;;;;;;;;;;;;;;;;;;5070753;28;19908;-74
2024/03/16 13:36:17;;;;;;;;;;;;;;;;;;5070296;28;19916;-74
2024/03/16 13:39:17;;;;;;;;;;;;;;;;;;5103595;27;19913;-72
2024/03/16 13:41:46;;;;;;;;;;;;;;;;;;5070917;28;19913;-72
2024/03/16 13:44:12;;;;;;;;;;;;;;;;;;5071145;28;19909;-72
2024/03/16 13:46:38;;;;;;;;;;;;;;;;;;5071022;28;19913;-73
2024/03/16 13:49:04;;;;;;;;;;;;;;;;;;5070603;28;19908;-73
2024/03/16 13:51:30;;;;;;;;;;;;;;;;;;5070990;28;19969;-73
2024/03/16 13:53:56;;;;;;;;;;;;;;;;;;5070906;28;20364;-73
2024/03/16 13:56:22;;;;;;;;;;;;;;;;;;5070498;28;20330;-72
2024/03/16 13:58:48;;;;;;;;;;;;;;;;;;5070843;28;20055;-73
2024/03/16 14:01:20;;;;;;;;;;;;;;;;;;5071130;28;19944;-73
2024/03/16 14:06:05;;;;;;;;;;;;;;;;;;5104348;27;20368;-74
2024/03/16 14:08:30;;;;;;;;;;;;;;;;;;5070999;28;20019;-73
2024/03/16 14:10:56;;;;;;;;;;;;;;;;;;5070452;28;19956;-73
2024/03/16 14:13:22;;;;;;;;;;;;;;;;;;5071028;28;19909;-73
2024/03/16 14:15:49;;;;;;;;;;;;;;;;;;5071048;28;19915;-74
2024/03/16 14:18:15;;;;;;;;;;;;;;;;;;5069129;28;20360;-73
2024/03/16 14:20:41;;;;;;;;;;;;;;;;;;5070829;28;19915;-73
2024/03/16 14:23:09;;;;;;;;;;;;;;;;;;5071048;28;19915;-73
2024/03/16 14:25:35;;;;;;;;;;;;;;;;;;5070276;28;19921;-73
2024/03/16 14:28:02;;;;;;;;;;;;;;;;;;5069433;28;20013;-73
2024/03/16 14:30:28;;;;;;;;;;;;;;;;;;5070664;28;20383;-73
2024/03/16 14:32:54;;;;;;;;;;;;;;;;;;5070340;28;19908;-73
2024/03/16 14:35:20;;;;;;;;;;;;;;;;;;5070627;28;20276;-73
2024/03/16 14:37:46;;;;;;;;;;;;;;;;;;5070040;28;19912;-74
2024/03/16 14:40:12;;;;;;;;;;;;;;;;;;5069314;28;19908;-73
2024/03/16 14:42:38;;;;;;;;;;;;;;;;;;5070362;28;20257;-74
2024/03/16 14:45:04;;;;;;;;;;;;;;;;;;5069979;28;19931;-74
2024/03/16 14:47:30;;;;;;;;;;;;;;;;;;5069062;28;19908;-73
2024/03/16 14:49:56;;;;;;;;;;;;;;;;;;5070366;28;19973;-73
2024/03/16 14:52:22;;;;;;;;;;;;;;;;;;5069848;28;19960;-73
2024/03/16 14:54:48;;;;;;;;;;;;;;;;;;5070171;28;19948;-73
2024/03/16 14:57:15;;;;;;;;;;;;;;;;;;5070161;28;19916;-73
2024/03/16 14:59:41;;;;;;;;;;;;;;;;;;5069747;28;19954;-73
2024/03/16 15:02:09;;;;;;;;;;;;;;;;;;5070035;28;19916;-73
2024/03/16 15:04:35;;;;;;;;;;;;;;;;;;5069832;28;20025;-73
2024/03/16 15:07:02;;;;;;;;;;;;;;;;;;5069561;28;19908;-74
2024/03/16 15:09:28;;;;;;;;;;;;;;;;;;5069762;28;19909;-73
2024/03/16 15:11:54;;;;;;;;;;;;;;;;;;5070014;28;20387;-74
2024/03/16 15:14:20;;;;;;;;;;;;;;;;;;5069382;28;19912;-73
2024/03/16 15:16:46;;;;;;;;;;;;;;;;;;5060283;28;19943;-73
2024/03/16 15:19:13;;;;;;;;;;;;;;;;;;5055204;28;19909;-73
2024/03/16 15:21:40;;;;;;;;;;;;;;;;;;5054884;28;19915;-72
2024/03/16 15:24:06;;;;;;;;;;;;;;;;;;5056411;28;19917;-72
2024/03/16 15:26:46;;;;;;;;;;;;;;;;;;5056387;28;19917;-72
2024/03/16 15:32:51;;;;;;;;;;;;;;;;;;5103741;27;19919;-73
2024/03/16 15:35:17;;;;;;;;;;;;;;;;;;5070893;28;19920;-73
2024/03/16 15:37:50;;;;;;;;;;;;;;;;;;5104270;27;19913;-72
2024/03/16 15:40:52;;;;;;;;;;;;;;;;;;5104390;27;19913;-72
2024/03/16 15:43:18;;;;;;;;;;;;;;;;;;5069626;28;19913;-73
2024/03/16 15:45:45;;;;;;;;;;;;;;;;;;5071159;28;19962;-73
2024/03/16 15:52:17;;;;;;;;;;;;;;;;;;5104372;27;20268;-72
2024/03/16 15:55:26;;;;;;;;;;;;;;;;;;5103873;27;19917;-72
2024/03/16 15:57:52;;;;;;;;;;;;;;;;;;5069809;28;19919;-73
2024/03/16 16:00:19;;;;;;;;;;;;;;;;;;5071164;28;20003;-73
2024/03/16 16:02:45;;;;;;;;;;;;;;;;;;5070578;28;19919;-74
2024/03/16 16:07:30;;;;;;;;;;;;;;;;;;5104191;27;19913;-73
2024/03/16 16:13:32;;;;;;;;;;;;;;;;;;5104349;27;19920;-72
2024/03/16 16:15:59;;;;;;;;;;;;;;;;;;5071130;28;19913;-73
2024/03/16 16:18:25;;;;;;;;;;;;;;;;;;5070710;28;20478;-72
2024/03/16 16:20:51;;;;;;;;;;;;;;;;;;5071198;28;19915;-73
2024/03/16 16:23:17;;;;;;;;;;;;;;;;;;5069241;28;19908;-73
2024/03/16 16:27:48;;;;;;;;;;;;;;;;;;5104719;27;19912;-72
2024/03/16 16:31:13;;;;;;;;;;;;;;;;;;5103910;27;19912;-74
2024/03/16 16:34:07;;;;;;;;;;;;;;;;;;5104487;27;20310;-74
2024/03/16 16:38:04;;;;;;;;;;;;;;;;;;5103902;27;19917;-72
2024/03/16 16:40:30;;;;;;;;;;;;;;;;;;5071204;28;19912;-73
2024/03/16 16:42:56;;;;;;;;;;;;;;;;;;5071127;28;20292;-72
2024/03/16 16:45:22;;;;;;;;;;;;;;;;;;5070649;28;20284;-73
2024/03/16 16:47:48;;;;;;;;;;;;;;;;;;5070856;28;19912;-74
2024/03/16 16:50:14;;;;;;;;;;;;;;;;;;5070863;28;19916;-74
2024/03/16 16:52:40;;;;;;;;;;;;;;;;;;5070508;28;19909;-74
2024/03/16 16:57:25;;;;;;;;;;;;;;;;;;5103687;27;19913;-72
2024/03/16 16:59:51;;;;;;;;;;;;;;;;;;5070741;28;19913;-72
2024/03/16 17:04:44;;;;;;;;;;;;;;;;;;5103852;27;19912;-74
2024/03/16 17:08:44;;;;;;;;;;;;;;;;;;5103958;27;19919;-73
2024/03/16 17:11:17;;;;;;;;;;;;;;;;;;5069859;28;20262;-74
2024/03/16 17:13:45;;;;;;;;;;;;;;;;;;5070723;28;20014;-73
2024/03/16 17:16:10;;;;;;;;;;;;;;;;;;5071087;28;19915;-73
2024/03/16 17:18:36;;;;;;;;;;;;;;;;;;5069638;28;19909;-73
2024/03/16 17:21:02;;;;;;;;;;;;;;;;;;5070575;28;19961;-72
2024/03/16 17:23:28;;;;;;;;;;;;;;;;;;5070618;28;19909;-74
2024/03/16 17:25:54;;;;;;;;;;;;;;;;;;5070892;28;19913;-74
2024/03/16 17:28:22;;;;;;;;;;;;;;;;;;5070315;28;19925;-73
2024/03/16 17:30:48;;;;;;;;;;;;;;;;;;5069357;28;19915;-74
2024/03/16 17:33:15;;;;;;;;;;;;;;;;;;5070676;28;19908;-74
2024/03/16 17:35:41;;;;;;;;;;;;;;;;;;5070308;28;19908;-74
2024/03/16 17:38:10;;;;;;;;;;;;;;;;;;5070617;28;20295;-74
2024/03/16 17:40:36;;;;;;;;;;;;;;;;;;5070247;28;19915;-74
2024/03/16 17:43:02;;;;;;;;;;;;;;;;;;5070525;28;19999;-74
2024/03/16 17:45:28;;;;;;;;;;;;;;;;;;5070315;28;19916;-73
2024/03/16 17:47:54;;;;;;;;;;;;;;;;;;5070347;28;19923;-72
2024/03/16 17:50:20;;;;;;;;;;;;;;;;;;5070726;28;20002;-73
2024/03/16 17:52:46;;;;;;;;;;;;;;;;;;5070439;28;19962;-74
2024/03/16 17:55:12;;;;;;;;;;;;;;;;;;5069970;28;19909;-74
2024/03/16 17:57:39;;;;;;;;;;;;;;;;;;5070169;28;19909;-74
2024/03/16 18:00:04;;;;;;;;;;;;;;;;;;5068920;28;19912;-74
2024/03/16 18:02:31;;;;;;;;;;;;;;;;;;5069785;28;19908;-73
2024/03/16 18:04:57;;;;;;;;;;;;;;;;;;5070112;28;19916;-74